Time;durP1;ratioP1;P1;durP2;ratioP2;P2;SDS_P1;SDS_P2;PMS_P1;PMS_P2;Temp;Humidity;BMP_temperature;BMP_pressure;BME280_temperature;BME280_humidity;BME280_pressure;Samples;Min_cycle;Max_cycle;Signal;HPM_P1;HPM_P2
2021/01/04 00:01:24;;;;;;;12.97;7.17;;;3.20;99.90;;;;;;5097245;28;20046;-54
2021/01/04 00:04:01;;;;;;;12.43;6.60;;;3.20;99.90;;;;;;5097482;28;20391;-56
2021/01/04 00:06:54;;;;;;;13.07;7.20;;;3.20;99.90;;;;;;5097256;28;19915;-55
2021/01/04 00:09:35;;;;;;;11.93;6.90;;;3.20;99.90;;;;;;5097234;28;20419;-55
2021/01/04 00:12:40;;;;;;;12.23;6.63;;;3.20;99.90;;;;;;5097296;28;20052;-55
2021/01/04 00:15:12;;;;;;;9.80;5.93;;;3.20;99.90;;;;;;5089025;28;20335;-55
2021/01/04 00:17:50;;;;;;;10.82;6.88;;;3.20;99.90;;;;;;5095432;28;20060;-55
2021/01/04 00:20:33;;;;;;;14.53;7.57;;;3.20;99.90;;;;;;5097182;28;20419;-55
2021/01/04 00:23:12;;;;;;;13.27;7.32;;;3.20;99.90;;;;;;5096585;28;20102;-55
2021/01/04 00:25:37;;;;;;;11.33;7.07;;;3.30;99.90;;;;;;5097166;28;20445;-55
2021/01/04 00:28:09;;;;;;;16.13;7.20;;;3.30;99.90;;;;;;5096904;28;20024;-55
2021/01/04 00:30:55;;;;;;;12.83;7.40;;;3.30;99.90;;;;;;5097067;28;20024;-55
2021/01/04 00:33:24;;;;;;;12.17;7.60;;;3.30;99.90;;;;;;5097245;28;20454;-55
2021/01/04 00:35:56;;;;;;;14.43;7.23;;;3.30;99.90;;;;;;5096825;28;20027;-55
2021/01/04 00:38:40;;;;;;;14.10;6.65;;;3.20;99.90;;;;;;5096595;28;19919;-55
2021/01/04 00:41:23;;;;;;;12.80;7.30;;;3.30;99.90;;;;;;5095813;28;20032;-55
2021/01/04 00:43:57;;;;;;;13.43;6.07;;;3.30;99.90;;;;;;5097145;28;20101;-55
2021/01/04 00:46:57;;;;;;;12.47;7.83;;;3.30;99.90;;;;;;5096621;28;20072;-55
2021/01/04 00:49:32;;;;;;;13.37;6.40;;;3.30;99.90;;;;;;5093164;28;20189;-55
2021/01/04 00:52:13;;;;;;;11.47;6.30;;;3.30;99.90;;;;;;5096985;28;20024;-55
2021/01/04 00:54:48;;;;;;;13.10;7.77;;;3.40;99.90;;;;;;5096805;28;20028;-54
2021/01/04 00:57:29;;;;;;;16.53;7.57;;;3.40;99.90;;;;;;5096802;28;20035;-56
2021/01/04 01:00:33;;;;;;;13.67;7.80;;;3.40;99.90;;;;;;5096553;28;20120;-56
2021/01/04 01:03:27;;;;;;;12.63;5.80;;;3.40;99.90;;;;;;5085293;28;20036;-56
2021/01/04 01:06:18;;;;;;;12.23;6.72;;;3.40;99.90;;;;;;5096877;28;20446;-56
2021/01/04 01:08:44;;;;;;;10.17;6.77;;;3.40;99.90;;;;;;5096557;28;20028;-55
2021/01/04 01:11:14;;;;;;;10.87;6.87;;;3.50;99.90;;;;;;5096696;28;20111;-55
2021/01/04 01:14:17;;;;;;;12.43;7.57;;;3.50;99.90;;;;;;5096855;28;20024;-56
2021/01/04 01:17:01;;;;;;;10.13;6.27;;;3.50;99.90;;;;;;5096410;28;20020;-56
2021/01/04 01:19:40;;;;;;;13.13;6.75;;;3.50;99.90;;;;;;5096681;28;20027;-55
2021/01/04 01:22:08;;;;;;;13.87;6.63;;;3.50;99.90;;;;;;5076527;28;20029;-55
2021/01/04 01:24:35;;;;;;;14.20;6.57;;;3.50;99.90;;;;;;5076071;28;20338;-54
2021/01/04 01:27:46;;;;;;;10.70;6.65;;;3.50;99.90;;;;;;5076094;28;20035;-54
2021/01/04 01:30:40;;;;;;;11.77;6.20;;;3.50;99.90;;;;;;5076089;28;20028;-56
2021/01/04 01:33:24;;;;;;;12.20;6.97;;;3.50;99.90;;;;;;5076480;28;20020;-56
2021/01/04 01:36:10;;;;;;;14.27;7.63;;;3.50;99.90;;;;;;5076092;28;20024;-55
2021/01/04 01:38:48;;;;;;;14.93;7.43;;;3.50;99.90;;;;;;5076253;28;20020;-54
2021/01/04 01:41:26;;;;;;;12.63;7.40;;;3.50;99.90;;;;;;5075934;28;20039;-54
2021/01/04 01:44:27;;;;;;;13.23;7.30;;;3.50;99.90;;;;;;5076353;28;20107;-55
2021/01/04 01:47:13;;;;;;;12.37;6.70;;;3.50;99.90;;;;;;5076002;28;20038;-56
2021/01/04 01:50:06;;;;;;;13.17;5.83;;;3.50;99.90;;;;;;5076238;28;20028;-56
2021/01/04 01:52:59;;;;;;;11.73;6.17;;;3.50;99.90;;;;;;5075948;28;20035;-54
2021/01/04 01:55:49;;;;;;;8.63;6.07;;;3.60;99.90;;;;;;5081200;28;20031;-55
2021/01/04 01:58:34;;;;;;;13.60;6.63;;;3.60;99.90;;;;;;5098433;28;20077;-54
2021/01/04 02:01:24;;;;;;;11.17;5.20;;;3.60;99.90;;;;;;5099778;28;20044;-54
2021/01/04 02:04:03;;;;;;;11.57;6.43;;;3.60;99.90;;;;;;5099800;28;20022;-54
2021/01/04 02:06:35;;;;;;;11.53;6.10;;;3.60;99.90;;;;;;5099039;28;20402;-54
2021/01/04 02:09:14;;;;;;;10.55;6.13;;;3.60;99.90;;;;;;5100313;28;20020;-54
2021/01/04 02:12:00;;;;;;;9.60;5.23;;;3.60;99.90;;;;;;5099633;28;20042;-54
2021/01/04 02:14:40;;;;;;;9.43;5.33;;;3.60;99.90;;;;;;5099933;28;20035;-54
2021/01/04 02:17:36;;;;;;;10.17;4.97;;;3.60;99.90;;;;;;5099331;28;20095;-54
2021/01/04 02:20:29;;;;;;;7.47;4.80;;;3.60;99.90;;;;;;5099439;28;20020;-54
2021/01/04 02:23:35;;;;;;;11.53;5.03;;;3.60;99.90;;;;;;5099716;28;20024;-54
2021/01/04 02:26:08;;;;;;;7.43;5.43;;;3.60;99.90;;;;;;5099809;28;20020;-55
2021/01/04 02:28:41;;;;;;;11.87;4.50;;;3.60;99.90;;;;;;5099624;28;20020;-54
2021/01/04 02:31:06;;;;;;;8.13;4.25;;;3.60;99.90;;;;;;5099005;28;20114;-55
2021/01/04 02:33:32;;;;;;;6.37;3.53;;;3.60;99.90;;;;;;5099610;28;20139;-55
2021/01/04 02:36:01;;;;;;;9.10;4.57;;;3.60;99.90;;;;;;5099858;28;20110;-55
2021/01/04 02:38:32;;;;;;;6.93;3.60;;;3.50;99.90;;;;;;5099195;28;20118;-54
2021/01/04 02:40:58;;;;;;;9.00;5.20;;;3.50;99.90;;;;;;5099520;28;20161;-55
2021/01/04 02:43:23;;;;;;;11.80;5.50;;;3.40;99.90;;;;;;5098766;28;20055;-55
2021/01/04 02:45:49;;;;;;;9.07;4.90;;;3.30;99.90;;;;;;5099314;28;20111;-55
2021/01/04 02:48:27;;;;;;;9.07;4.47;;;3.30;99.90;;;;;;5098965;28;20316;-55
2021/01/04 02:50:59;;;;;;;7.80;4.60;;;3.30;99.90;;;;;;5099442;28;20342;-55
2021/01/04 02:53:42;;;;;;;9.17;4.27;;;3.20;99.90;;;;;;5098882;28;20157;-55
2021/01/04 02:56:32;;;;;;;5.93;3.70;;;3.20;99.90;;;;;;5098834;28;20430;-55
2021/01/04 02:59:12;;;;;;;9.03;4.13;;;3.20;99.90;;;;;;5098984;28;19908;-55
2021/01/04 03:01:49;;;;;;;12.63;5.37;;;3.20;99.90;;;;;;5098976;28;20351;-54
2021/01/04 03:04:19;;;;;;;8.47;4.80;;;3.10;99.90;;;;;;5098471;28;20411;-54
2021/01/04 03:06:47;;;;;;;11.23;4.50;;;3.10;99.90;;;;;;5099125;28;20024;-55
2021/01/04 03:09:13;;;;;;;10.87;4.67;;;3.10;99.90;;;;;;5098363;28;20028;-55
2021/01/04 03:11:43;;;;;;;10.07;5.63;;;3.00;99.90;;;;;;5098588;28;19904;-55
2021/01/04 03:14:29;;;;;;;8.13;5.00;;;3.10;99.90;;;;;;5098779;28;20031;-54
2021/01/04 03:17:25;;;;;;;12.03;5.00;;;3.00;99.90;;;;;;5098270;28;20388;-54
2021/01/04 03:19:55;;;;;;;9.13;5.33;;;3.00;99.90;;;;;;5095137;28;20020;-54
2021/01/04 03:22:21;;;;;;;8.63;5.03;;;3.00;99.90;;;;;;5078213;28;19915;-54
2021/01/04 03:24:49;;;;;;;9.53;6.07;;;3.00;99.90;;;;;;5096836;28;19908;-54
2021/01/04 03:27:21;;;;;;;16.00;5.85;;;2.90;99.90;;;;;;5098313;28;20077;-55
2021/01/04 03:29:47;;;;;;;9.53;5.97;;;2.90;99.90;;;;;;5097925;28;20028;-54
2021/01/04 03:32:13;;;;;;;13.80;6.23;;;2.90;99.90;;;;;;5097650;28;20028;-54
2021/01/04 03:34:39;;;;;;;13.30;6.50;;;2.90;99.90;;;;;;5098171;28;20335;-54
2021/01/04 03:37:05;;;;;;;14.23;5.93;;;2.90;99.90;;;;;;5098033;28;20027;-54
2021/01/04 03:39:31;;;;;;;17.57;6.77;;;2.90;99.90;;;;;;5096576;28;20392;-54
2021/01/04 03:41:57;;;;;;;9.93;4.60;;;2.80;99.90;;;;;;5098050;28;20020;-54
2021/01/04 03:44:25;;;;;;;10.27;5.67;;;2.80;99.90;;;;;;5098038;28;20024;-54
2021/01/04 03:46:51;;;;;;;12.77;6.07;;;2.70;99.90;;;;;;5097513;28;20031;-54
2021/01/04 03:49:16;;;;;;;13.37;6.67;;;2.70;99.90;;;;;;5097742;28;20347;-53
2021/01/04 03:51:56;;;;;;;11.20;5.83;;;2.70;99.90;;;;;;5098068;28;20024;-54
2021/01/04 03:54:23;;;;;;;11.37;5.93;;;2.70;99.90;;;;;;5097752;28;20026;-53
2021/01/04 03:56:48;;;;;;;11.77;5.50;;;2.60;99.90;;;;;;5097701;28;20659;-56
2021/01/04 03:59:15;;;;;;;11.50;5.93;;;2.50;99.90;;;;;;5097160;28;20341;-53
2021/01/04 04:01:51;;;;;;;11.33;6.03;;;2.50;99.90;;;;;;5097499;28;20262;-56
2021/01/04 04:04:17;;;;;;;11.87;5.47;;;2.50;99.90;;;;;;5097846;28;20253;-56
2021/01/04 04:06:43;;;;;;;10.50;6.73;;;2.50;99.90;;;;;;5097525;28;20363;-55
2021/01/04 04:09:10;;;;;;;8.90;5.20;;;2.50;99.90;;;;;;5097705;28;20356;-55
2021/01/04 04:11:36;;;;;;;10.80;5.80;;;2.40;99.90;;;;;;5097666;28;20027;-55
2021/01/04 04:14:03;;;;;;;11.33;5.83;;;2.40;99.90;;;;;;5097398;28;20579;-55
2021/01/04 04:16:28;;;;;;;15.93;6.73;;;2.40;99.90;;;;;;5097645;28;20315;-55
2021/01/04 04:18:54;;;;;;;9.73;6.67;;;2.40;99.90;;;;;;5096986;28;20339;-55
2021/01/04 04:21:20;;;;;;;16.33;7.13;;;2.40;99.90;;;;;;5080730;28;20028;-55
2021/01/04 04:23:46;;;;;;;13.77;6.10;;;2.40;99.90;;;;;;5075677;28;20025;-55
2021/01/04 04:26:19;;;;;;;11.90;6.03;;;2.30;99.90;;;;;;5077211;28;20032;-55
2021/01/04 04:28:45;;;;;;;12.10;6.05;;;2.40;99.90;;;;;;5077145;28;20107;-55
2021/01/04 04:31:12;;;;;;;12.87;6.17;;;2.30;99.90;;;;;;5077100;28;20406;-56
2021/01/04 04:33:38;;;;;;;14.60;6.33;;;2.40;99.90;;;;;;5076379;28;20056;-56
2021/01/04 04:36:04;;;;;;;18.27;7.37;;;2.30;99.90;;;;;;5091906;28;20671;-55
2021/01/04 04:38:30;;;;;;;13.43;6.67;;;2.30;99.90;;;;;;5097439;28;20249;-55
2021/01/04 04:40:56;;;;;;;11.07;6.53;;;2.30;99.90;;;;;;5096902;28;20032;-55
2021/01/04 04:43:37;;;;;;;12.77;6.07;;;2.30;99.90;;;;;;5095294;28;20024;-55
2021/01/04 04:46:07;;;;;;;14.80;6.37;;;2.30;99.90;;;;;;5096925;28;20020;-55
2021/01/04 04:48:42;;;;;;;11.70;5.60;;;2.40;99.90;;;;;;5096731;28;20248;-55
2021/01/04 04:51:13;;;;;;;15.90;6.40;;;2.30;99.90;;;;;;5096864;28;20245;-55
2021/01/04 04:54:01;;;;;;;10.67;5.80;;;2.40;99.90;;;;;;5096926;28;20249;-55
2021/01/04 04:56:33;;;;;;;13.07;6.47;;;2.30;99.90;;;;;;5096894;28;20283;-55
2021/01/04 04:59:12;;;;;;;13.57;5.37;;;2.30;99.90;;;;;;5096744;28;20567;-56
2021/01/04 05:01:49;;;;;;;21.63;6.43;;;2.30;99.90;;;;;;5096513;28;20308;-55
2021/01/04 05:04:39;;;;;;;14.13;5.47;;;2.30;99.90;;;;;;5095483;28;20063;-55
2021/01/04 05:07:22;;;;;;;13.30;5.63;;;2.30;99.90;;;;;;5096875;28;20303;-56
2021/01/04 05:09:54;;;;;;;;;;;2.30;99.90;;;;;;5095799;28;20264;-56
2021/01/04 05:12:29;;;;;;;10.00;5.60;;;2.30;99.90;;;;;;5097118;28;19917;-55
2021/01/04 05:15:06;;;;;;;8.20;5.67;;;2.20;99.90;;;;;;5096468;28;20248;-55
2021/01/04 05:18:00;;;;;;;10.60;5.97;;;2.30;99.90;;;;;;5096284;28;20245;-55
2021/01/04 05:20:49;;;;;;;10.50;5.33;;;2.30;99.90;;;;;;5096207;28;20334;-53
2021/01/04 05:23:38;;;;;;;15.47;6.13;;;2.30;99.90;;;;;;5096698;28;20310;-55
2021/01/04 05:26:41;;;;;;;11.23;5.40;;;2.30;99.90;;;;;;5092959;28;20266;-54
2021/01/04 05:29:25;;;;;;;12.97;5.20;;;2.30;99.90;;;;;;5096451;28;20064;-54
2021/01/04 05:32:15;;;;;;;10.27;5.33;;;2.30;99.90;;;;;;5097442;28;20068;-55
2021/01/04 05:34:43;;;;;;;10.20;6.20;;;2.40;99.90;;;;;;5100675;28;20253;-54
2021/01/04 05:37:17;;;;;;;11.40;5.80;;;2.40;99.90;;;;;;5098820;28;20053;-54
2021/01/04 05:40:08;;;;;;;8.33;5.60;;;2.50;99.90;;;;;;5100231;28;20314;-55
2021/01/04 05:42:48;;;;;;;11.90;5.83;;;2.50;99.90;;;;;;5100137;28;20027;-55
2021/01/04 05:45:26;;;;;;;12.40;6.43;;;2.50;99.90;;;;;;5100480;28;20381;-55
2021/01/04 05:48:16;;;;;;;11.33;6.80;;;2.50;99.90;;;;;;5100501;28;20247;-55
2021/01/04 05:51:04;;;;;;;11.80;6.20;;;2.50;99.90;;;;;;5099996;28;20272;-55
2021/01/04 05:53:29;;;;;;;13.90;6.07;;;2.50;99.90;;;;;;5100129;28;20024;-55
2021/01/04 05:55:59;;;;;;;10.67;5.63;;;2.50;99.90;;;;;;5100096;28;20265;-55
2021/01/04 05:58:30;;;;;;;12.27;5.93;;;2.40;99.90;;;;;;5100187;28;20028;-55
2021/01/04 06:01:20;;;;;;;11.53;6.43;;;2.30;99.90;;;;;;5099951;28;20285;-55
2021/01/04 06:04:32;;;;;;;11.83;5.83;;;2.30;99.90;;;;;;5100041;28;20252;-55
2021/01/04 06:07:06;;;;;;;11.67;5.50;;;2.20;99.90;;;;;;5094263;28;20359;-55
2021/01/04 06:09:32;;;;;;;18.30;6.80;;;2.10;99.90;;;;;;5100178;28;20262;-55
2021/01/04 06:12:00;;;;;;;12.63;6.33;;;2.10;99.90;;;;;;5100124;28;20343;-55
2021/01/04 06:14:28;;;;;;;14.57;6.47;;;2.10;99.90;;;;;;5098804;28;20020;-55
2021/01/04 06:17:07;;;;;;;15.53;7.23;;;2.00;99.90;;;;;;5099748;28;20663;-55
2021/01/04 06:19:37;;;;;;;12.20;8.00;;;1.90;99.90;;;;;;5097864;28;20275;-55
2021/01/04 06:22:09;;;;;;;15.07;6.40;;;1.90;99.90;;;;;;5077006;28;20245;-55
2021/01/04 06:24:37;;;;;;;10.83;7.03;;;1.90;99.90;;;;;;5077565;28;20190;-55
2021/01/04 06:27:15;;;;;;;13.27;6.00;;;1.90;99.90;;;;;;5079123;28;20285;-55
2021/01/04 06:29:44;;;;;;;12.43;5.53;;;1.90;99.90;;;;;;5079320;28;20579;-55
2021/01/04 06:32:33;;;;;;;15.77;6.77;;;1.90;99.90;;;;;;5079089;28;20253;-55
2021/01/04 06:35:21;;;;;;;14.83;5.43;;;1.90;99.90;;;;;;5078873;28;20057;-55
2021/01/04 06:37:47;;;;;;;10.97;5.90;;;1.90;99.90;;;;;;5079128;28;20064;-55
2021/01/04 06:40:35;;;;;;;12.37;5.80;;;2.00;99.90;;;;;;5078902;28;20272;-55
2021/01/04 06:43:34;;;;;;;15.13;6.47;;;1.90;99.90;;;;;;5078509;28;20472;-55
2021/01/04 06:46:05;;;;;;;13.00;6.60;;;1.90;99.90;;;;;;5066901;28;20069;-55
2021/01/04 06:49:03;;;;;;;12.50;6.43;;;1.90;99.90;;;;;;5078565;28;20060;-55
2021/01/04 06:51:43;;;;;;;9.60;6.23;;;1.90;99.90;;;;;;5078595;28;20252;-55
2021/01/04 06:54:50;;;;;;;12.50;5.87;;;1.90;99.90;;;;;;5078728;28;20512;-55
2021/01/04 06:57:19;;;;;;;13.77;5.10;;;1.80;99.90;;;;;;5070057;28;20257;-54
2021/01/04 07:00:11;;;;;;;10.30;6.17;;;1.80;99.90;;;;;;5078617;28;20366;-54
2021/01/04 07:02:48;;;;;;;19.40;6.90;;;1.80;99.90;;;;;;5078406;28;20261;-54
2021/01/04 07:05:28;;;;;;;13.17;6.30;;;1.80;99.90;;;;;;5078702;28;20293;-54
2021/01/04 07:08:04;;;;;;;12.77;6.10;;;1.80;99.90;;;;;;5077473;28;20288;-54
2021/01/04 07:10:46;;;;;;;15.37;5.67;;;1.80;99.90;;;;;;5078054;28;20264;-54
2021/01/04 07:13:26;;;;;;;9.90;5.73;;;1.80;99.90;;;;;;5078504;28;20253;-54
2021/01/04 07:16:16;;;;;;;12.03;5.37;;;1.80;99.90;;;;;;5078520;28;20575;-54
2021/01/04 07:19:17;;;;;;;11.07;5.30;;;1.90;99.90;;;;;;5078247;28;20257;-54
2021/01/04 07:21:49;;;;;;;13.00;6.43;;;1.90;99.90;;;;;;5073587;28;20346;-54
2021/01/04 07:24:33;;;;;;;9.40;5.77;;;1.90;99.90;;;;;;5092266;28;20370;-54
2021/01/04 07:27:06;;;;;;;12.37;6.23;;;1.90;99.90;;;;;;5098191;28;20260;-54
2021/01/04 07:29:56;;;;;;;17.83;5.75;;;1.90;99.90;;;;;;5098492;28;20252;-54
2021/01/04 07:32:44;;;;;;;10.67;5.30;;;1.90;99.90;;;;;;5098760;28;20136;-54
2021/01/04 07:35:15;;;;;;;11.27;6.20;;;2.00;99.90;;;;;;5095241;28;20098;-54
2021/01/04 07:37:47;;;;;;;12.17;5.67;;;2.00;99.90;;;;;;5098000;28;20064;-54
2021/01/04 07:40:15;;;;;;;12.53;5.83;;;1.90;99.90;;;;;;5097907;28;20264;-54
2021/01/04 07:42:41;;;;;;;9.73;4.63;;;1.90;99.90;;;;;;5098201;28;20253;-54
2021/01/04 07:45:28;;;;;;;10.37;6.63;;;2.00;99.90;;;;;;5098337;28;20256;-55
2021/01/04 07:48:21;;;;;;;10.83;5.53;;;2.00;99.90;;;;;;5098391;28;20433;-55
2021/01/04 07:51:11;;;;;;;11.45;5.78;;;2.00;99.90;;;;;;5098041;28;20667;-55
2021/01/04 07:53:57;;;;;;;9.13;5.50;;;2.00;99.90;;;;;;5098228;28;20444;-55
2021/01/04 07:56:32;;;;;;;9.90;5.43;;;2.00;99.90;;;;;;5097289;28;20256;-55
2021/01/04 07:59:35;;;;;;;8.73;5.40;;;2.10;99.90;;;;;;5097802;28;20555;-55
2021/01/04 08:02:01;;;;;;;10.73;5.90;;;2.20;99.90;;;;;;5097898;28;20306;-56
2021/01/04 08:04:38;;;;;;;11.13;5.37;;;2.20;99.90;;;;;;5097541;28;20248;-55
2021/01/04 08:07:18;;;;;;;9.80;5.73;;;2.20;99.90;;;;;;5097733;28;20116;-55
2021/01/04 08:10:03;;;;;;;10.27;5.60;;;2.20;99.90;;;;;;5097716;28;20144;-55
2021/01/04 08:12:52;;;;;;;9.47;5.30;;;2.20;99.90;;;;;;5097471;28;20278;-55
2021/01/04 08:15:40;;;;;;;13.67;5.83;;;2.20;99.90;;;;;;5097828;28;20143;-55
2021/01/04 08:18:19;;;;;;;12.40;6.10;;;2.20;99.90;;;;;;5097257;28;20251;-55
2021/01/04 08:21:21;;;;;;;9.00;5.57;;;2.20;99.90;;;;;;5086656;28;20691;-55
2021/01/04 08:24:23;;;;;;;9.97;5.60;;;2.20;99.90;;;;;;5070394;28;20065;-54
2021/01/04 08:26:51;;;;;;;10.57;5.53;;;2.30;99.90;;;;;;5069512;28;20583;-55
2021/01/04 08:29:35;;;;;;;13.87;5.90;;;2.30;99.90;;;;;;5076770;28;20563;-55
2021/01/04 08:32:20;;;;;;;9.53;4.90;;;2.40;99.90;;;;;;5076698;28;20555;-55
2021/01/04 08:34:46;;;;;;;11.40;5.10;;;2.40;99.90;;;;;;5080062;28;20667;-54
2021/01/04 08:37:16;;;;;;;7.97;5.07;;;2.40;99.90;;;;;;5096783;28;20313;-54
2021/01/04 08:39:51;;;;;;;9.00;5.60;;;2.40;99.90;;;;;;5097391;28;20671;-55
2021/01/04 08:42:22;;;;;;;12.60;6.20;;;2.40;99.90;;;;;;5096898;28;20614;-54
2021/01/04 08:44:59;;;;;;;10.37;6.43;;;2.40;99.90;;;;;;5097008;28;20244;-54
2021/01/04 08:47:35;;;;;;;12.07;5.13;;;2.30;99.90;;;;;;5096938;28;20253;-56
2021/01/04 08:50:12;;;;;;;14.53;6.07;;;2.40;99.90;;;;;;5096991;28;20325;-56
2021/01/04 08:52:48;;;;;;;9.33;5.20;;;2.30;99.90;;;;;;5096379;28;20020;-56
2021/01/04 08:55:29;;;;;;;13.77;6.30;;;2.40;99.90;;;;;;5096598;28;20252;-58
2021/01/04 08:57:56;;;;;;;15.30;5.77;;;2.40;99.90;;;;;;5096732;28;20256;-56
2021/01/04 09:00:28;;;;;;;11.70;5.77;;;2.50;99.90;;;;;;5096348;28;20288;-56
2021/01/04 09:02:55;;;;;;;8.70;5.57;;;2.50;99.90;;;;;;5095934;28;19908;-56
2021/01/04 09:05:38;;;;;;;12.90;6.90;;;2.40;99.90;;;;;;5093828;28;20312;-56
2021/01/04 09:08:06;;;;;;;9.63;5.95;;;2.40;99.90;;;;;;5093991;28;20358;-56
2021/01/04 09:10:48;;;;;;;15.97;5.67;;;2.40;99.90;;;;;;5094663;28;20461;-56
2021/01/04 09:13:37;;;;;;;10.20;5.53;;;2.50;99.90;;;;;;5094614;28;20264;-56
2021/01/04 09:16:15;;;;;;;10.53;5.33;;;2.50;99.90;;;;;;5094181;28;20252;-54
2021/01/04 09:18:48;;;;;;;13.17;5.67;;;2.50;99.90;;;;;;5094665;28;20279;-56
2021/01/04 09:21:23;;;;;;;10.38;5.25;;;2.60;99.90;;;;;;5094590;28;20265;-54
2021/01/04 09:23:49;;;;;;;8.00;5.47;;;2.70;99.90;;;;;;5094360;28;20120;-56
2021/01/04 09:26:26;;;;;;;8.73;6.63;;;2.60;99.90;;;;;;5094593;28;20054;-55
2021/01/04 09:29:26;;;;;;;14.10;5.73;;;2.70;99.90;;;;;;5073426;28;20152;-54
2021/01/04 09:31:59;;;;;;;8.93;6.17;;;2.80;99.90;;;;;;5084902;28;20085;-55
2021/01/04 09:34:29;;;;;;;9.43;5.10;;;2.80;99.90;;;;;;5104141;28;19998;-57
2021/01/04 09:37:02;;;;;;;9.80;4.97;;;2.90;99.90;;;;;;5090041;28;20031;-55
2021/01/04 09:39:30;;;;;;;8.88;5.13;;;3.00;99.90;;;;;;5097828;28;20282;-55
2021/01/04 09:42:01;;;;;;;9.90;5.30;;;3.00;99.90;;;;;;5091889;28;20365;-55
2021/01/04 09:44:27;;;;;;;10.87;4.40;;;3.10;99.90;;;;;;5093201;28;19915;-55
2021/01/04 09:46:59;;;;;;;9.47;4.30;;;3.10;99.90;;;;;;5093077;28;19916;-57
2021/01/04 09:49:36;;;;;;;9.00;4.67;;;3.20;99.90;;;;;;5093139;28;20032;-56
2021/01/04 09:52:20;;;;;;;7.97;4.57;;;3.30;99.90;;;;;;5094031;28;20056;-55
2021/01/04 09:54:49;;;;;;;8.52;4.53;;;3.20;99.90;;;;;;5096132;28;20085;-56
2021/01/04 09:57:20;;;;;;;7.10;3.80;;;3.20;99.90;;;;;;5096082;28;20028;-55
2021/01/04 09:59:46;;;;;;;7.53;4.37;;;3.30;99.90;;;;;;5095957;28;20020;-56
2021/01/04 10:02:27;;;;;;;8.17;5.13;;;3.30;99.90;;;;;;5096218;28;20028;-56
2021/01/04 10:04:53;;;;;;;8.30;4.83;;;3.40;99.90;;;;;;5096112;28;20024;-56
2021/01/04 10:07:27;;;;;;;20.30;4.37;;;3.30;99.90;;;;;;5095749;28;20026;-54
2021/01/04 10:09:54;;;;;;;9.60;4.33;;;3.30;99.90;;;;;;5090525;28;20025;-56
2021/01/04 10:12:25;;;;;;;9.93;4.33;;;3.30;99.90;;;;;;5084129;28;20515;-56
2021/01/04 10:14:52;;;;;;;22.13;4.43;;;3.30;99.90;;;;;;5095536;28;20107;-56
2021/01/04 10:17:22;;;;;;;6.70;4.53;;;3.40;99.90;;;;;;5095801;28;20034;-57
2021/01/04 10:20:04;;;;;;;6.27;3.47;;;3.40;99.90;;;;;;5097991;28;20034;-55
2021/01/04 10:22:35;;;;;;;9.13;3.90;;;3.50;99.90;;;;;;5099870;28;20144;-56
2021/01/04 10:25:25;;;;;;;6.20;3.40;;;3.50;99.90;;;;;;5098291;28;20323;-56
2021/01/04 10:27:56;;;;;;;7.73;3.90;;;3.60;99.90;;;;;;5099541;28;20422;-56
2021/01/04 10:30:25;;;;;;;7.83;4.67;;;3.60;99.90;;;;;;5099101;28;20082;-57
2021/01/04 10:33:30;;;;;;;6.80;3.13;;;3.70;99.90;;;;;;5099612;28;20127;-56
2021/01/04 10:36:13;;;;;;;7.10;4.10;;;3.90;99.90;;;;;;5093357;28;20284;-56
2021/01/04 10:38:42;;;;;;;6.93;3.60;;;3.90;99.90;;;;;;5099453;28;20035;-56
2021/01/04 10:41:10;;;;;;;6.10;2.93;;;3.90;99.90;;;;;;5098826;28;20454;-57
2021/01/04 10:43:37;;;;;;;6.50;3.10;;;4.00;99.90;;;;;;5098858;28;20039;-55
2021/01/04 10:46:22;;;;;;;17.17;3.43;;;4.10;99.90;;;;;;5098673;28;20111;-55
2021/01/04 10:49:01;;;;;;;5.13;3.23;;;4.10;99.90;;;;;;5086964;28;20391;-55
2021/01/04 10:51:28;;;;;;;8.80;3.80;;;4.10;99.90;;;;;;5078473;28;20017;-54
2021/01/04 10:53:53;;;;;;;5.90;3.30;;;4.10;99.90;;;;;;5078791;28;20021;-54
2021/01/04 10:56:19;;;;;;;7.03;3.30;;;4.00;99.90;;;;;;5078451;28;20103;-54
2021/01/04 10:58:52;;;;;;;4.60;2.87;;;4.00;99.90;;;;;;5078357;28;20094;-54
2021/01/04 11:01:22;;;;;;;8.20;3.33;;;4.10;99.90;;;;;;5077038;28;20090;-55
2021/01/04 11:03:54;;;;;;;8.50;3.90;;;4.10;99.90;;;;;;5078487;28;20028;-55
2021/01/04 11:06:45;;;;;;;7.50;3.83;;;4.10;99.90;;;;;;5078613;28;20076;-55
2021/01/04 11:09:31;;;;;;;5.57;3.67;;;4.10;99.90;;;;;;5078199;28;20024;-55
2021/01/04 11:12:13;;;;;;;8.97;3.80;;;4.00;99.90;;;;;;5078462;28;20043;-55
2021/01/04 11:14:50;;;;;;;8.93;3.63;;;4.10;99.90;;;;;;5077065;28;20021;-55
2021/01/04 11:17:20;;;;;;;7.43;3.80;;;4.30;99.90;;;;;;5077805;28;20025;-55
2021/01/04 11:19:48;;;;;;;7.50;3.50;;;4.30;99.90;;;;;;5083217;28;20044;-56
2021/01/04 11:22:13;;;;;;;6.03;3.60;;;4.30;99.90;;;;;;5101156;28;20024;-56
2021/01/04 11:24:40;;;;;;;7.87;3.27;;;4.40;99.90;;;;;;5099949;28;20019;-56
2021/01/04 11:27:06;;;;;;;13.23;3.80;;;4.40;99.90;;;;;;5096336;28;20442;-55
2021/01/04 11:29:32;;;;;;;7.33;3.93;;;4.30;99.90;;;;;;5097893;28;20419;-55
2021/01/04 11:31:58;;;;;;;5.80;4.10;;;4.30;99.90;;;;;;5097621;28;20062;-55
2021/01/04 11:34:23;;;;;;;8.50;2.85;;;4.30;99.90;;;;;;5097170;28;20032;-55
2021/01/04 11:36:49;;;;;;;7.70;3.40;;;4.30;99.90;;;;;;5096457;28;20071;-56
2021/01/04 11:39:16;;;;;;;11.63;3.37;;;4.30;99.90;;;;;;5094450;28;20032;-55
2021/01/04 11:41:43;;;;;;;5.73;3.57;;;4.20;99.90;;;;;;5098103;28;20164;-54
2021/01/04 11:44:09;;;;;;;8.70;3.70;;;4.30;99.90;;;;;;5098024;28;20528;-54
2021/01/04 11:46:35;;;;;;;8.43;3.70;;;4.30;99.90;;;;;;5095217;28;20060;-54
2021/01/04 11:49:01;;;;;;;7.93;3.90;;;4.40;99.90;;;;;;5089757;28;20062;-54
2021/01/04 11:51:27;;;;;;;9.80;3.60;;;4.30;99.90;;;;;;5084064;28;20485;-54
2021/01/04 11:53:54;;;;;;;12.67;4.17;;;4.40;99.90;;;;;;5095446;28;20058;-54
2021/01/04 11:56:22;;;;;;;7.63;4.07;;;4.30;99.90;;;;;;5080867;28;20111;-54
2021/01/04 11:58:48;;;;;;;7.93;3.87;;;4.40;99.90;;;;;;5076124;28;20518;-55
2021/01/04 12:01:17;;;;;;;7.20;4.53;;;4.40;99.90;;;;;;5083107;28;20063;-55
2021/01/04 12:03:43;;;;;;;5.63;3.60;;;4.40;99.90;;;;;;5097220;28;20066;-55
2021/01/04 12:06:10;;;;;;;6.33;3.57;;;4.40;99.90;;;;;;5085997;28;20032;-57
2021/01/04 12:08:37;;;;;;;12.63;4.07;;;4.40;99.90;;;;;;5094322;28;20454;-56
2021/01/04 12:11:03;;;;;;;8.37;3.90;;;4.40;99.90;;;;;;5096942;28;20028;-55
2021/01/04 12:13:28;;;;;;;9.67;3.50;;;4.50;99.90;;;;;;5097729;28;20035;-56
2021/01/04 12:15:54;;;;;;;11.13;3.87;;;4.50;99.90;;;;;;5097213;28;20039;-56
2021/01/04 12:18:20;;;;;;;8.10;4.17;;;4.50;99.90;;;;;;5097345;28;20431;-56
2021/01/04 12:20:46;;;;;;;7.23;3.30;;;4.50;99.90;;;;;;5085870;28;20031;-56
2021/01/04 12:23:12;;;;;;;14.00;3.07;;;4.50;99.90;;;;;;5079851;28;20027;-56
2021/01/04 12:25:38;;;;;;;6.63;2.47;;;4.60;99.90;;;;;;5087532;28;20020;-56
2021/01/04 12:28:04;;;;;;;5.83;2.90;;;4.60;99.90;;;;;;5080928;28;20056;-56
2021/01/04 12:30:32;;;;;;;6.27;2.90;;;4.60;99.90;;;;;;5078054;28;20020;-56
2021/01/04 12:32:59;;;;;;;10.20;2.90;;;4.60;99.90;;;;;;5092953;28;20032;-56
2021/01/04 12:35:25;;;;;;;7.77;3.30;;;4.60;99.90;;;;;;5096159;28;20051;-56
2021/01/04 12:37:50;;;;;;;6.70;2.53;;;4.70;99.90;;;;;;5095476;28;20955;-56
2021/01/04 12:40:18;;;;;;;6.63;2.50;;;4.70;99.90;;;;;;5095492;28;20041;-56
2021/01/04 12:42:44;;;;;;;6.23;2.83;;;4.70;99.90;;;;;;5094228;28;20053;-56
2021/01/04 12:45:11;;;;;;;7.53;3.00;;;4.80;99.90;;;;;;5095599;28;20020;-56
2021/01/04 12:47:36;;;;;;;6.73;3.07;;;4.80;99.90;;;;;;5095457;28;20328;-56
2021/01/04 12:50:04;;;;;;;7.87;2.67;;;4.80;99.90;;;;;;5082149;28;20035;-56
2021/01/04 12:52:29;;;;;;;6.10;2.87;;;4.80;99.90;;;;;;5076719;28;20028;-55
2021/01/04 12:54:55;;;;;;;7.63;2.40;;;4.80;99.90;;;;;;5079233;28;20034;-55
2021/01/04 12:57:24;;;;;;;5.00;2.57;;;4.90;99.90;;;;;;5088975;28;20028;-56
2021/01/04 12:59:50;;;;;;;8.00;1.80;;;5.00;99.90;;;;;;5075994;28;20039;-57
2021/01/04 13:02:18;;;;;;;7.23;2.03;;;5.00;99.90;;;;;;5075741;28;20060;-56
2021/01/04 13:04:44;;;;;;;4.60;2.40;;;5.10;99.90;;;;;;5076296;28;20370;-55
2021/01/04 13:07:12;;;;;;;5.83;2.17;;;5.00;99.90;;;;;;5075616;28;20024;-55
2021/01/04 13:09:38;;;;;;;4.80;2.03;;;5.10;99.90;;;;;;5077252;28;20039;-55
2021/01/04 13:12:05;;;;;;;6.17;2.60;;;5.10;99.90;;;;;;5076223;28;20047;-56
2021/01/04 13:14:31;;;;;;;7.03;2.83;;;5.10;99.90;;;;;;5090792;28;20097;-56
2021/01/04 13:16:57;;;;;;;6.77;1.87;;;5.00;99.90;;;;;;5094710;28;20423;-56
2021/01/04 13:19:31;;;;;;;5.77;2.43;;;5.10;99.90;;;;;;5079237;28;20087;-56
2021/01/04 13:21:58;;;;;;;6.23;2.70;;;5.10;99.90;;;;;;5075975;28;20029;-56
2021/01/04 13:24:24;;;;;;;4.23;2.00;;;5.10;99.90;;;;;;5076545;28;20029;-56
2021/01/04 13:26:55;;;;;;;8.55;3.05;;;5.10;99.90;;;;;;5075926;28;20039;-55
2021/01/04 13:29:26;;;;;;;8.70;2.40;;;5.10;99.90;;;;;;5076102;28;20031;-56
2021/01/04 13:31:54;;;;;;;5.10;2.10;;;5.10;99.90;;;;;;5078473;28;20092;-56
2021/01/04 13:34:20;;;;;;;4.43;2.00;;;5.10;99.90;;;;;;5078461;28;20036;-56